createdAt,value
2023-04-24T00:02:20.869Z,0
2023-04-24T00:12:20.870Z,0
2023-04-24T00:22:20.955Z,0
2023-04-24T00:32:20.708Z,0
2023-04-24T00:42:21.441Z,0
2023-04-24T00:52:22.271Z,0
2023-04-24T01:02:23.151Z,0
2023-04-24T01:12:22.525Z,0
2023-04-24T01:22:23.050Z,0
2023-04-24T01:32:23.566Z,0
2023-04-24T01:42:24.249Z,0
2023-04-24T01:52:24.559Z,0
2023-04-24T02:02:24.283Z,0
2023-04-24T02:12:24.334Z,0
2023-04-24T02:22:24.641Z,0
2023-04-24T02:32:25.097Z,0
2023-04-24T02:42:25.152Z,0
2023-04-24T02:52:25.424Z,0
2023-04-24T03:02:07.251Z,0
2023-04-24T03:12:07.886Z,0
2023-04-24T03:22:07.603Z,0
2023-04-24T03:32:06.307Z,0
2023-04-24T03:42:07.089Z,0
2023-04-24T03:52:07.409Z,0
2023-04-24T04:02:09.929Z,0
2023-04-24T04:12:18.146Z,0
2023-04-24T04:22:24.211Z,0
2023-04-24T04:32:26.652Z,0
2023-04-24T04:42:29.003Z,0
2023-04-24T04:52:30.787Z,0
2023-04-24T05:02:31.709Z,0
2023-04-24T05:12:32.744Z,0
2023-04-24T05:22:32.528Z,0
2023-04-24T05:32:33.178Z,0
2023-04-24T05:42:40.468Z,0
2023-04-24T05:52:52.352Z,0
2023-04-24T06:03:08.682Z,0
2023-04-24T06:13:24.301Z,0
2023-04-24T06:23:41.033Z,0
2023-04-24T06:33:57.651Z,0
2023-04-24T06:44:13.007Z,0
2023-04-24T06:54:31.419Z,0
2023-04-24T07:04:47.852Z,0
2023-04-24T07:15:05.349Z,0
2023-04-24T07:25:23.857Z,0
2023-04-24T07:35:43.172Z,0
2023-04-24T07:45:59.002Z,0
2023-04-24T07:56:14.330Z,0
2023-04-24T08:06:29.815Z,0
2023-04-24T08:16:45.296Z,0
2023-04-24T08:27:02.297Z,101.9
2023-04-24T08:37:21.845Z,101
2023-04-24T08:47:41.409Z,104.1
2023-04-24T08:57:59.322Z,104.1
2023-04-24T09:02:12.843Z,0
2023-04-24T09:12:28.860Z,0
2023-04-24T09:22:44.162Z,0
2023-04-24T09:32:59.713Z,0
2023-04-24T09:43:14.116Z,0
2023-04-24T09:53:30.903Z,0
2023-04-24T10:03:48.571Z,120.6
2023-04-24T10:14:09.729Z,122
2023-04-24T10:24:30.365Z,121.8
2023-04-24T10:34:50.226Z,124.5
2023-04-24T10:45:10.898Z,123.1
2023-04-24T10:55:30.843Z,122.5
2023-04-24T11:05:46.872Z,122.5
2023-04-24T11:15:52.554Z,122.5
2023-04-24T11:25:54.598Z,122.5
2023-04-24T11:36:07.216Z,111.4
2023-04-24T11:46:18.934Z,107.7
2023-04-24T11:56:35.742Z,101.9
2023-04-24T12:06:52.889Z,103.6
2023-04-24T12:17:12.896Z,100.3
2023-04-24T12:27:31.417Z,101.9
2023-04-24T12:37:50.498Z,102.3
2023-04-24T12:48:09.519Z,103.1
2023-04-24T12:58:27.299Z,102.3
2023-04-24T13:08:44.460Z,102.3
2023-04-24T13:19:05.012Z,100.9
2023-04-24T13:29:24.557Z,107.2
2023-04-24T13:39:41.704Z,104.2
2023-04-24T13:49:53.148Z,104.2
2023-04-24T15:12:10.203Z,0
2023-04-24T15:22:12.973Z,0
2023-04-24T15:32:12.987Z,0
2023-04-24T15:42:12.652Z,0
2023-04-24T15:52:11.903Z,0
2023-04-24T16:02:12.189Z,0
2023-04-24T16:12:12.768Z,0
2023-04-24T16:22:14.824Z,0
2023-04-24T16:32:16.437Z,0
2023-04-24T16:42:18.068Z,0
2023-04-24T16:52:18.961Z,0
2023-04-24T17:02:21.926Z,0
2023-04-24T17:12:21.989Z,0
2023-04-24T17:22:23.158Z,0
2023-04-24T17:32:21.973Z,0
2023-04-24T17:42:21.665Z,0
2023-04-24T17:52:22.060Z,651.3
2023-04-24T18:02:22.266Z,651.3
2023-04-24T18:12:21.641Z,651.3
2023-04-24T18:22:21.706Z,651.3
2023-04-24T18:32:21.597Z,651.3
2023-04-24T18:42:21.332Z,651.3
2023-04-24T18:52:20.471Z,651.3
2023-04-24T19:02:20.724Z,651.3
2023-04-24T19:12:22.721Z,651.3
2023-04-24T19:22:20.157Z,651.3
2023-04-24T19:32:20.143Z,546.1
2023-04-24T19:42:25.694Z,546.1
2023-04-24T19:52:20.229Z,546.1
2023-04-24T20:02:19.616Z,546.1
2023-04-24T20:12:19.452Z,546.1
2023-04-24T20:22:19.718Z,546.1
2023-04-24T20:32:20.037Z,546.1
2023-04-24T20:42:19.034Z,546.1
2023-04-24T20:52:18.961Z,546.1
2023-04-24T21:02:07.539Z,0
2023-04-24T21:12:07.690Z,0
2023-04-24T21:22:07.980Z,0
2023-04-24T21:32:07.737Z,0
2023-04-24T21:42:07.702Z,0
2023-04-24T21:52:08.354Z,0
2023-04-24T22:02:09.297Z,0
2023-04-24T22:12:09.463Z,0
2023-04-24T22:22:11.529Z,0
2023-04-24T22:32:13.475Z,0
2023-04-24T22:42:15.173Z,0
2023-04-24T22:52:17.216Z,0
2023-04-24T23:02:18.381Z,0
2023-04-24T23:12:19.413Z,0
2023-04-24T23:22:19.566Z,0
2023-04-24T23:32:20.645Z,0
2023-04-24T23:42:21.133Z,0
2023-04-24T23:52:21.964Z,0
